Time;durP1;ratioP1;P1;durP2;ratioP2;P2;SDS_P1;SDS_P2;PMS_P1;PMS_P2;Temp;Humidity;BMP_temperature;BMP_pressure;BME280_temperature;BME280_humidity;BME280_pressure;Samples;Min_cycle;Max_cycle;Signal;HPM_P1;HPM_P2
2022/09/01 00:01:02;;;;;;;4.25;1.48;;;16.40;99.90;;;;;;5028320;28;20037;-78
2022/09/01 00:03:28;;;;;;;5.10;1.30;;;16.40;99.90;;;;;;5009427;28;20098;-78
2022/09/01 00:05:55;;;;;;;3.83;1.20;;;16.30;99.90;;;;;;4995403;28;20053;-80
2022/09/01 00:08:22;;;;;;;4.07;1.42;;;16.30;99.90;;;;;;5009652;28;20154;-80
2022/09/01 00:10:49;;;;;;;3.65;1.13;;;16.30;99.90;;;;;;5005056;28;20053;-81
2022/09/01 00:13:15;;;;;;;3.60;1.45;;;16.30;99.90;;;;;;5008944;28;20050;-80
2022/09/01 00:15:42;;;;;;;4.93;1.20;;;16.30;99.90;;;;;;5029333;28;20050;-80
2022/09/01 00:18:07;;;;;;;5.07;1.50;;;16.30;99.90;;;;;;5016740;28;20041;-80
2022/09/01 00:20:33;;;;;;;3.88;1.27;;;16.30;99.90;;;;;;5009559;28;20059;-80
2022/09/01 00:22:59;;;;;;;3.85;1.42;;;16.30;99.90;;;;;;5031366;28;20037;-80
2022/09/01 00:25:26;;;;;;;3.17;1.20;;;16.20;99.90;;;;;;5034460;28;20060;-78
2022/09/01 00:27:53;;;;;;;2.95;1.10;;;16.20;99.90;;;;;;5009184;28;20402;-81
2022/09/01 00:30:20;;;;;;;2.35;1.33;;;16.20;99.90;;;;;;5010807;28;20045;-79
2022/09/01 00:32:46;;;;;;;2.80;1.58;;;16.20;99.90;;;;;;5019645;28;20140;-79
2022/09/01 00:35:14;;;;;;;3.22;1.33;;;16.10;99.90;;;;;;5049776;28;20389;-79
2022/09/01 00:37:40;;;;;;;5.70;1.30;;;16.10;99.90;;;;;;5038381;28;20076;-77
2022/09/01 00:40:08;;;;;;;3.35;1.42;;;16.10;99.90;;;;;;4990153;28;20537;-83
2022/09/01 00:42:33;;;;;;;3.25;1.55;;;15.70;99.90;;;;;;5025328;28;20045;-81
2022/09/01 00:44:59;;;;;;;2.60;1.38;;;16.10;99.90;;;;;;4987040;28;20055;-79
2022/09/01 00:47:25;;;;;;;4.13;1.58;;;16.00;99.90;;;;;;5010035;28;20068;-80
2022/09/01 00:49:52;;;;;;;3.22;1.55;;;16.00;99.90;;;;;;5022813;28;20069;-76
2022/09/01 00:52:35;;;;;;;2.92;1.30;;;16.00;99.90;;;;;;5026816;28;20095;-76
2022/09/01 00:55:16;;;;;;;7.03;1.40;;;16.00;99.90;;;;;;5025252;28;20037;-78
2022/09/01 00:57:43;;;;;;;3.90;1.50;;;15.90;99.90;;;;;;5023687;28;20073;-76
2022/09/01 01:00:39;;;;;;;2.90;1.48;;;15.90;99.90;;;;;;5007087;28;20138;-79
2022/09/01 01:05:47;;;;;;;3.05;1.50;;;15.80;99.90;;;;;;5332987;22;20062;-82
2022/09/01 01:08:18;;;;;;;3.20;1.33;;;15.80;99.90;;;;;;4970050;28;20104;-83
2022/09/01 01:10:44;;;;;;;4.70;1.30;;;15.80;99.90;;;;;;4969739;28;20047;-82
2022/09/01 01:13:14;;;;;;;3.00;1.40;;;15.80;99.90;;;;;;4987368;28;20041;-83
2022/09/01 01:15:43;;;;;;;3.28;1.30;;;15.60;99.90;;;;;;4982308;28;20057;-82
2022/09/01 01:18:16;;;;;;;2.08;1.40;;;15.70;99.90;;;;;;4991774;28;20508;-83
2022/09/01 01:23:26;;;;;;;3.85;1.40;;;15.70;99.90;;;;;;4997939;28;20382;-83
2022/09/01 01:25:56;;;;;;;3.13;1.27;;;15.70;99.90;;;;;;4966706;28;20128;-82
2022/09/01 01:28:31;;;;;;;3.28;1.30;;;15.60;99.90;;;;;;4984812;28;20042;-82
2022/09/01 01:31:11;;;;;;;4.20;1.73;;;15.60;99.90;;;;;;4983134;28;20400;-82
2022/09/01 01:33:45;;;;;;;2.55;1.60;;;15.60;99.90;;;;;;4985296;28;20483;-83
2022/09/01 01:36:24;;;;;;;3.85;1.60;;;15.50;99.90;;;;;;4975637;28;20050;-83
2022/09/01 01:38:51;;;;;;;2.95;1.40;;;15.50;99.90;;;;;;4985505;28;20116;-83
2022/09/01 01:41:18;;;;;;;2.50;1.40;;;15.40;99.90;;;;;;4968003;28;20065;-82
2022/09/01 01:43:44;;;;;;;2.92;1.48;;;15.50;99.90;;;;;;4991560;28;20073;-82
2022/09/01 01:46:17;;;;;;;3.42;1.40;;;15.40;99.90;;;;;;4987130;28;20492;-83
2022/09/01 01:48:44;;;;;;;2.33;1.35;;;15.40;99.90;;;;;;4985857;28;20054;-83
2022/09/01 01:51:12;;;;;;;2.08;1.40;;;15.40;99.90;;;;;;4968912;28;20046;-82
2022/09/01 01:53:39;;;;;;;2.65;1.60;;;15.10;99.90;;;;;;4965340;28;20058;-83
2022/09/01 01:56:07;;;;;;;2.63;1.33;;;15.30;99.90;;;;;;4959013;28;20403;-82
2022/09/01 01:58:34;;;;;;;2.60;1.40;;;15.30;99.90;;;;;;4954810;28;20162;-83
2022/09/01 02:01:02;;;;;;;2.50;1.58;;;15.30;99.90;;;;;;4989840;28;20058;-82
2022/09/01 02:03:37;;;;;;;3.95;1.65;;;15.20;99.90;;;;;;4985840;28;20060;-82
2022/09/01 02:06:07;;;;;;;3.08;1.67;;;15.20;99.90;;;;;;4974774;28;20058;-83
2022/09/01 02:08:34;;;;;;;3.28;1.60;;;15.20;99.90;;;;;;5003665;28;20142;-82
2022/09/01 02:11:01;;;;;;;2.20;1.42;;;15.10;99.90;;;;;;4983373;28;20053;-82
2022/09/01 02:13:29;;;;;;;2.58;1.70;;;15.10;99.90;;;;;;4974656;28;20162;-82
2022/09/01 02:16:04;;;;;;;1.50;1.20;;;15.10;99.90;;;;;;4983346;28;20531;-83
2022/09/01 02:18:39;;;;;;;2.25;1.30;;;15.60;99.90;;;;;;4984776;28;20050;-82
2022/09/01 02:21:09;;;;;;;2.92;1.30;;;15.10;99.90;;;;;;4981707;28;20108;-82
2022/09/01 02:23:39;;;;;;;2.80;1.42;;;15.00;99.90;;;;;;4968293;28;20042;-82
2022/09/01 02:26:07;;;;;;;2.50;1.65;;;15.10;99.90;;;;;;4982357;28;20046;-82
2022/09/01 02:28:36;;;;;;;3.13;1.30;;;15.00;99.90;;;;;;5007610;28;20117;-82
2022/09/01 02:31:04;;;;;;;3.03;1.25;;;14.90;99.90;;;;;;5005756;28;20081;-83
2022/09/01 02:33:35;;;;;;;2.83;1.70;;;14.90;99.90;;;;;;4986970;28;20058;-82
2022/09/01 02:36:07;;;;;;;2.10;1.40;;;14.50;99.90;;;;;;4977227;28;20116;-83
2022/09/01 02:38:34;;;;;;;2.15;1.30;;;14.80;99.90;;;;;;4968719;28;20113;-83
2022/09/01 02:41:02;;;;;;;2.78;1.50;;;14.80;99.90;;;;;;4981732;28;20049;-82
2022/09/01 02:43:30;;;;;;;2.55;1.50;;;14.80;99.90;;;;;;4969834;28;20396;-82
2022/09/01 02:45:58;;;;;;;3.38;1.77;;;14.70;99.90;;;;;;4985380;28;20061;-83
2022/09/01 02:48:26;;;;;;;2.95;1.50;;;15.00;99.90;;;;;;4997128;28;20050;-82
2022/09/01 02:50:52;;;;;;;2.70;1.75;;;14.70;99.90;;;;;;4990351;28;20124;-83
2022/09/01 02:53:18;;;;;;;2.22;1.70;;;14.70;99.90;;;;;;4966699;28;20054;-83
2022/09/01 02:55:44;;;;;;;2.42;2.13;;;14.70;99.90;;;;;;4982409;28;20146;-82
2022/09/01 02:58:12;;;;;;;3.63;2.00;;;14.00;99.90;;;;;;4984263;28;20053;-82
2022/09/01 03:00:39;;;;;;;2.75;1.52;;;14.60;99.90;;;;;;4967855;28;20467;-83
2022/09/01 03:03:06;;;;;;;2.97;1.60;;;14.60;99.90;;;;;;4986587;28;20060;-83
2022/09/01 03:05:34;;;;;;;2.72;1.50;;;14.50;99.90;;;;;;4992874;28;20145;-82
2022/09/01 03:08:09;;;;;;;2.72;1.80;;;14.60;99.90;;;;;;4984223;28;20092;-83
2022/09/01 03:10:40;;;;;;;3.00;1.63;;;14.50;99.90;;;;;;4985044;28;20073;-82
2022/09/01 03:13:11;;;;;;;2.15;1.52;;;14.50;99.90;;;;;;5000518;28;20566;-82
2022/09/01 03:15:37;;;;;;;2.25;1.50;;;14.50;99.90;;;;;;4988995;28;20128;-82
2022/09/01 03:18:05;;;;;;;2.30;1.60;;;14.50;99.90;;;;;;4991849;28;20129;-82
2022/09/01 03:20:34;;;;;;;2.88;1.52;;;14.50;99.90;;;;;;4969237;28;20038;-82
2022/09/01 03:23:07;;;;;;;2.45;1.92;;;14.50;99.90;;;;;;4998666;28;20582;-82
2022/09/01 03:25:35;;;;;;;2.10;1.50;;;14.40;99.90;;;;;;4970395;28;20075;-82
2022/09/01 03:28:02;;;;;;;2.45;1.48;;;14.40;99.90;;;;;;4974078;28;20054;-82
2022/09/01 03:30:29;;;;;;;3.42;1.65;;;14.40;99.90;;;;;;4998599;28;20054;-83
2022/09/01 03:32:56;;;;;;;3.10;1.48;;;14.30;99.90;;;;;;4984275;28;20498;-82
2022/09/01 03:35:23;;;;;;;1.92;1.35;;;14.30;99.90;;;;;;4989007;28;20044;-83
2022/09/01 03:37:49;;;;;;;2.97;1.77;;;14.40;99.90;;;;;;4984178;28;20062;-82
2022/09/01 03:40:17;;;;;;;1.90;1.40;;;14.40;99.90;;;;;;4967704;28;20081;-82
2022/09/01 03:42:43;;;;;;;2.70;1.88;;;14.40;99.90;;;;;;4983620;28;20055;-82
2022/09/01 03:45:11;;;;;;;2.00;1.40;;;14.30;99.90;;;;;;4983940;28;20103;-83
2022/09/01 03:47:42;;;;;;;2.35;1.50;;;14.30;99.90;;;;;;4981330;28;20777;-82
2022/09/01 03:50:19;;;;;;;2.75;1.30;;;14.30;99.90;;;;;;4983532;28;20052;-82
2022/09/01 03:52:54;;;;;;;2.20;1.58;;;14.30;99.90;;;;;;4974778;28;20049;-82
2022/09/01 03:55:25;;;;;;;2.63;1.60;;;14.30;99.90;;;;;;4988990;28;20104;-82
2022/09/01 03:57:54;;;;;;;3.22;1.73;;;14.20;99.90;;;;;;4983167;28;20056;-83
2022/09/01 04:00:23;;;;;;;3.10;1.60;;;14.20;99.90;;;;;;4981763;28;20116;-82
2022/09/01 04:02:55;;;;;;;2.38;1.50;;;14.10;99.90;;;;;;4974030;28;20169;-82
2022/09/01 04:05:23;;;;;;;2.38;1.60;;;14.20;99.90;;;;;;4981771;28;20451;-83
2022/09/01 04:07:50;;;;;;;2.45;1.73;;;14.10;99.90;;;;;;4999390;28;20455;-82
2022/09/01 04:10:21;;;;;;;3.60;1.60;;;14.10;99.90;;;;;;4980085;28;20103;-82
2022/09/01 04:12:47;;;;;;;4.70;1.80;;;14.10;99.90;;;;;;4998147;28;20050;-82
2022/09/01 04:15:15;;;;;;;2.30;1.60;;;14.10;99.90;;;;;;4981297;28;20479;-82
2022/09/01 04:20:28;;;;;;;2.03;1.70;;;14.10;99.90;;;;;;4968265;28;20058;-82
2022/09/01 04:22:54;;;;;;;2.00;1.42;;;14.00;99.90;;;;;;4965878;28;20056;-82
2022/09/01 04:25:25;;;;;;;2.60;1.70;;;14.00;99.90;;;;;;4965592;28;20042;-82
2022/09/01 04:27:56;;;;;;;2.83;1.77;;;14.00;99.90;;;;;;4981716;28;20061;-82
2022/09/01 04:30:30;;;;;;;1.73;1.30;;;14.00;99.90;;;;;;4980554;28;20057;-82
2022/09/01 04:32:56;;;;;;;2.55;1.65;;;14.00;99.90;;;;;;4989515;28;20515;-82
2022/09/01 04:35:31;;;;;;;2.83;1.60;;;14.00;99.90;;;;;;4988130;28;20046;-83
2022/09/01 04:37:58;;;;;;;2.95;1.90;;;14.00;99.90;;;;;;4993285;28;20050;-82
2022/09/01 04:40:26;;;;;;;2.70;1.55;;;13.90;99.90;;;;;;4968199;28;20042;-82
2022/09/01 04:42:52;;;;;;;2.67;1.63;;;13.90;99.90;;;;;;4984726;28;20049;-82
2022/09/01 04:45:21;;;;;;;2.63;1.40;;;13.90;99.90;;;;;;4977081;28;20129;-83
2022/09/01 04:47:47;;;;;;;2.05;1.50;;;14.00;99.90;;;;;;4976826;28;20104;-82
2022/09/01 04:50:15;;;;;;;3.17;1.60;;;13.90;99.90;;;;;;4983487;28;20460;-83
2022/09/01 04:52:43;;;;;;;3.00;1.60;;;14.50;99.90;;;;;;4986191;28;20507;-82
2022/09/01 04:55:16;;;;;;;3.47;1.60;;;13.90;99.90;;;;;;4985440;28;20056;-83
2022/09/01 04:57:46;;;;;;;2.55;1.60;;;13.90;99.90;;;;;;4985864;28;20064;-82
2022/09/01 05:00:23;;;;;;;3.67;1.60;;;13.90;99.90;;;;;;4987047;28;20061;-82
2022/09/01 05:03:02;;;;;;;3.22;1.75;;;13.90;99.90;;;;;;4991299;28;20046;-82
2022/09/01 05:05:35;;;;;;;2.85;1.80;;;13.90;99.90;;;;;;4985907;28;20057;-82
2022/09/01 05:08:01;;;;;;;2.60;1.80;;;13.80;99.90;;;;;;4984637;28;20523;-82
2022/09/01 05:10:28;;;;;;;6.13;1.80;;;13.90;99.90;;;;;;4983125;28;20094;-82
2022/09/01 05:12:56;;;;;;;2.80;1.85;;;13.90;99.90;;;;;;4969875;28;20078;-82
2022/09/01 05:15:22;;;;;;;2.83;1.60;;;13.70;99.90;;;;;;4986090;28;20159;-83
2022/09/01 05:17:48;;;;;;;2.50;1.60;;;13.80;99.90;;;;;;5002161;28;20049;-82
2022/09/01 05:20:15;;;;;;;2.22;1.70;;;13.90;99.90;;;;;;5001529;28;20054;-83
2022/09/01 05:22:41;;;;;;;2.10;1.50;;;13.90;99.90;;;;;;4985628;28;20046;-82
2022/09/01 05:25:12;;;;;;;3.67;1.70;;;13.90;99.90;;;;;;5000994;28;20133;-82
2022/09/01 05:27:48;;;;;;;2.97;1.88;;;13.70;99.90;;;;;;4986905;28;20053;-82
2022/09/01 05:30:16;;;;;;;2.55;1.80;;;13.90;99.90;;;;;;4994026;28;20046;-82
2022/09/01 05:32:46;;;;;;;3.35;1.80;;;13.90;99.90;;;;;;4986348;28;20060;-82
2022/09/01 05:35:12;;;;;;;3.15;2.05;;;13.90;99.90;;;;;;4973306;28;20069;-83
2022/09/01 05:37:38;;;;;;;3.10;1.73;;;13.90;99.90;;;;;;4984817;28;20380;-82
2022/09/01 05:40:14;;;;;;;2.92;1.85;;;13.90;99.90;;;;;;5003988;28;20069;-80
2022/09/01 05:42:44;;;;;;;3.17;1.83;;;13.90;99.90;;;;;;4972151;28;20074;-82
2022/09/01 05:45:14;;;;;;;2.88;1.70;;;13.90;99.90;;;;;;4985000;28;20042;-82
2022/09/01 05:47:40;;;;;;;2.50;1.60;;;14.00;99.90;;;;;;4983206;28;20051;-80
2022/09/01 05:50:09;;;;;;;2.97;2.00;;;14.00;99.90;;;;;;5000136;28;20046;-80
2022/09/01 05:52:37;;;;;;;3.20;1.73;;;13.90;99.90;;;;;;4969213;28;20045;-82
2022/09/01 05:55:08;;;;;;;3.17;1.85;;;14.00;99.90;;;;;;4970565;28;20061;-82
2022/09/01 05:57:35;;;;;;;3.50;1.90;;;14.10;99.90;;;;;;4966001;28;20554;-83
2022/09/01 06:00:09;;;;;;;3.95;1.67;;;14.10;99.90;;;;;;4982408;28;20108;-82
2022/09/01 06:02:36;;;;;;;3.10;2.10;;;14.10;99.90;;;;;;4975783;28;20401;-82
2022/09/01 06:05:02;;;;;;;3.78;1.92;;;14.10;99.90;;;;;;4969635;28;20068;-81
2022/09/01 06:07:29;;;;;;;2.55;1.92;;;14.20;99.90;;;;;;4974684;28;20073;-81
2022/09/01 06:09:55;;;;;;;2.90;2.08;;;14.20;99.90;;;;;;4985598;28;20091;-84
2022/09/01 06:12:23;;;;;;;2.63;1.63;;;14.20;99.90;;;;;;4990613;28;20050;-81
2022/09/01 06:14:52;;;;;;;3.15;2.10;;;14.20;99.90;;;;;;4972324;28;20057;-82
2022/09/01 06:17:23;;;;;;;3.50;1.63;;;14.30;99.90;;;;;;4985647;28;20436;-82
2022/09/01 06:19:51;;;;;;;2.95;1.80;;;14.30;99.90;;;;;;4990471;28;20082;-82
2022/09/01 06:22:19;;;;;;;4.85;1.98;;;14.40;99.90;;;;;;4974611;28;20054;-84
2022/09/01 06:24:47;;;;;;;3.58;2.13;;;14.40;99.90;;;;;;4976378;28;20058;-82
2022/09/01 06:27:16;;;;;;;2.53;1.80;;;14.50;99.90;;;;;;4983694;28;20124;-82
2022/09/01 06:29:44;;;;;;;3.08;1.98;;;14.50;99.90;;;;;;4967734;28;20046;-82
2022/09/01 06:32:16;;;;;;;3.25;1.85;;;14.50;99.90;;;;;;4983122;28;20179;-81
2022/09/01 06:34:43;;;;;;;5.13;2.00;;;14.60;99.90;;;;;;4981240;28;20054;-82
2022/09/01 06:37:12;;;;;;;2.10;1.50;;;14.70;99.90;;;;;;4973308;28;20057;-81
2022/09/01 06:39:38;;;;;;;3.28;2.00;;;14.70;99.90;;;;;;4965344;28;20125;-82
2022/09/01 06:42:04;;;;;;;2.70;1.98;;;14.80;99.90;;;;;;4965266;28;20144;-79
2022/09/01 06:44:31;;;;;;;2.25;1.85;;;14.90;99.90;;;;;;4971696;28;20045;-79
2022/09/01 06:46:56;;;;;;;4.40;2.03;;;15.00;99.90;;;;;;4981724;28;20062;-80
2022/09/01 06:49:31;;;;;;;3.35;1.90;;;15.10;99.90;;;;;;4981533;28;20042;-80
2022/09/01 06:52:02;;;;;;;3.70;2.30;;;15.20;99.90;;;;;;4965827;28;20521;-81
2022/09/01 06:54:33;;;;;;;2.40;1.73;;;15.40;99.90;;;;;;4983390;28;20383;-80
2022/09/01 06:57:02;;;;;;;3.10;2.00;;;15.50;99.90;;;;;;4981710;28;20100;-81
2022/09/01 06:59:30;;;;;;;4.15;2.00;;;15.60;99.90;;;;;;4950026;28;20439;-80
2022/09/01 07:01:59;;;;;;;2.58;1.88;;;15.70;99.90;;;;;;4966310;28;20046;-82
2022/09/01 07:04:30;;;;;;;2.83;1.70;;;15.90;99.90;;;;;;4979596;28;20051;-83
2022/09/01 07:06:56;;;;;;;4.43;1.88;;;16.00;99.90;;;;;;4984614;28;20050;-85
2022/09/01 07:09:23;;;;;;;4.30;2.17;;;16.10;99.90;;;;;;4960443;28;20048;-82
2022/09/01 07:11:49;;;;;;;2.65;1.50;;;16.30;99.90;;;;;;4972877;28;20066;-82
2022/09/01 07:14:18;;;;;;;2.58;1.80;;;16.50;99.90;;;;;;4984162;28;20074;-88
2022/09/01 07:16:45;;;;;;;2.85;2.00;;;16.00;99.90;;;;;;4974993;28;20086;-87
2022/09/01 07:19:14;;;;;;;4.25;1.50;;;16.80;99.90;;;;;;4977420;28;20046;-85
2022/09/01 07:21:42;;;;;;;3.38;1.88;;;17.00;99.90;;;;;;4992916;28;20065;-86
2022/09/01 07:24:10;;;;;;;4.45;1.80;;;17.20;99.90;;;;;;4979327;28;20582;-81
2022/09/01 07:26:37;;;;;;;3.03;1.77;;;17.40;99.90;;;;;;4970420;28;20057;-82
2022/09/01 07:29:05;;;;;;;3.08;1.50;;;17.60;99.90;;;;;;4976767;28;20559;-82
2022/09/01 07:31:37;;;;;;;3.83;1.90;;;17.90;99.90;;;;;;4961871;28;20042;-81
2022/09/01 07:34:05;;;;;;;4.25;1.60;;;18.10;99.90;;;;;;4979320;28;20062;-82
2022/09/01 07:36:32;;;;;;;2.08;1.40;;;18.30;99.90;;;;;;4980485;28;20050;-84
2022/09/01 07:39:00;;;;;;;1.98;1.48;;;18.50;99.90;;;;;;4963489;28;20050;-81
2022/09/01 07:41:27;;;;;;;2.60;1.70;;;18.70;99.90;;;;;;4977700;28;20078;-82
2022/09/01 07:43:55;;;;;;;3.53;1.60;;;18.90;99.90;;;;;;4994642;28;20100;-81
2022/09/01 07:46:24;;;;;;;4.95;1.70;;;19.10;99.90;;;;;;4981724;28;20057;-86
2022/09/01 07:48:52;;;;;;;2.72;1.73;;;19.30;99.90;;;;;;4978842;28;20118;-85
2022/09/01 07:51:22;;;;;;;2.70;1.55;;;19.50;99.90;;;;;;4962824;28;20166;-85
2022/09/01 07:53:49;;;;;;;2.20;1.52;;;19.80;99.90;;;;;;4963377;28;20046;-85
2022/09/01 07:56:18;;;;;;;2.08;1.30;;;20.00;99.90;;;;;;4963841;28;20559;-85
2022/09/01 07:58:48;;;;;;;4.65;1.63;;;20.20;99.90;;;;;;4979157;28;20054;-85
2022/09/01 08:01:20;;;;;;;2.38;1.33;;;20.40;99.90;;;;;;4970899;28;20384;-84
2022/09/01 08:03:48;;;;;;;3.50;1.30;;;20.50;99.90;;;;;;4995208;28;20047;-85
2022/09/01 08:06:20;;;;;;;3.00;1.50;;;20.70;99.90;;;;;;4970329;28;20129;-84
2022/09/01 08:08:48;;;;;;;2.05;1.40;;;21.00;99.90;;;;;;4972384;28;20113;-85
2022/09/01 08:11:22;;;;;;;2.33;1.20;;;21.20;99.90;;;;;;4984857;28;20050;-86
2022/09/01 08:13:50;;;;;;;2.95;1.40;;;21.40;99.90;;;;;;4982095;28;20055;-85
2022/09/01 08:16:16;;;;;;;3.03;1.27;;;21.60;99.90;;;;;;4981951;28;20054;-86
2022/09/01 08:18:43;;;;;;;3.28;1.60;;;21.80;99.90;;;;;;4934519;28;20100;-85
2022/09/01 08:21:11;;;;;;;2.42;1.45;;;22.00;99.90;;;;;;4989843;28;20096;-85
2022/09/01 08:23:38;;;;;;;3.20;1.58;;;22.30;99.90;;;;;;4981630;28;20090;-86
2022/09/01 08:26:06;;;;;;;2.00;1.33;;;22.40;99.90;;;;;;4974161;28;20125;-84
2022/09/01 08:28:32;;;;;;;3.53;1.30;;;22.60;99.90;;;;;;4965327;28;20054;-86
2022/09/01 08:31:09;;;;;;;2.97;1.40;;;22.80;99.90;;;;;;4980777;28;20120;-85
2022/09/01 08:33:36;;;;;;;2.22;1.30;;;23.20;99.90;;;;;;4980436;28;20385;-86
2022/09/01 08:36:11;;;;;;;3.15;1.40;;;23.30;99.90;;;;;;4983426;28;20160;-85
2022/09/01 08:38:37;;;;;;;2.80;1.33;;;24.30;99.90;;;;;;4982273;28;20042;-86
2022/09/01 08:41:12;;;;;;;2.38;1.35;;;23.60;99.90;;;;;;4981556;28;20130;-85
2022/09/01 08:43:59;;;;;;;3.30;1.10;;;23.90;99.90;;;;;;4981504;28;20516;-85
2022/09/01 08:46:36;;;;;;;2.25;1.30;;;24.10;99.90;;;;;;4973004;28;20050;-86
2022/09/01 08:49:11;;;;;;;3.30;1.20;;;24.00;99.90;;;;;;4981395;28;20051;-86
2022/09/01 08:52:06;;;;;;;1.37;0.93;;;23.70;99.70;;;;;;4981652;28;20056;-84
2022/09/01 08:54:45;;;;;;;4.20;1.27;;;24.70;99.20;;;;;;4989223;28;20124;-86
2022/09/01 08:57:19;;;;;;;1.77;1.17;;;24.90;98.80;;;;;;4982013;28;20046;-86
2022/09/01 08:59:48;;;;;;;2.97;1.20;;;25.10;98.90;;;;;;4982866;28;20392;-87
2022/09/01 09:02:52;;;;;;;2.25;1.08;;;25.30;98.60;;;;;;4988958;28;20073;-86
2022/09/01 09:05:47;;;;;;;3.45;1.10;;;25.60;97.50;;;;;;4950568;28;20054;-85
2022/09/01 09:08:51;;;;;;;1.98;1.17;;;25.80;97.30;;;;;;4964019;28;20109;-87
2022/09/01 09:11:39;;;;;;;1.40;0.80;;;26.00;96.80;;;;;;4981734;28;20039;-86
2022/09/01 09:14:24;;;;;;;3.05;1.10;;;25.60;97.20;;;;;;4989578;28;20416;-87
2022/09/01 09:16:55;;;;;;;2.50;1.10;;;25.70;94.70;;;;;;4980695;28;20121;-86
2022/09/01 09:19:29;;;;;;;1.48;0.98;;;26.60;95.20;;;;;;4980378;28;20134;-87
2022/09/01 09:21:58;;;;;;;2.90;1.10;;;26.60;94.90;;;;;;5000292;28;20407;-86
2022/09/01 09:24:48;;;;;;;1.88;0.90;;;26.80;95.10;;;;;;4983835;28;20106;-83
2022/09/01 09:27:25;;;;;;;2.05;1.08;;;26.90;94.80;;;;;;4967225;28;20054;-84
2022/09/01 09:30:11;;;;;;;3.05;1.20;;;27.20;94.50;;;;;;4987912;28;20042;-83
2022/09/01 09:32:47;;;;;;;2.90;1.00;;;27.40;93.50;;;;;;4986035;28;20484;-86
2022/09/01 09:35:31;;;;;;;2.75;1.00;;;27.60;93.70;;;;;;5001542;28;20054;-86
2022/09/01 09:38:21;;;;;;;1.40;0.88;;;27.80;91.10;;;;;;4981382;28;20054;-86
2022/09/01 09:41:01;;;;;;;2.42;1.20;;;28.00;91.20;;;;;;4979884;28;20421;-85
2022/09/01 09:43:29;;;;;;;2.45;0.70;;;28.20;90.10;;;;;;4965036;28;20054;-86
2022/09/01 09:46:20;;;;;;;1.25;0.85;;;28.30;91.30;;;;;;4980816;28;20213;-84
2022/09/01 09:48:47;;;;;;;2.10;0.70;;;28.50;90.20;;;;;;4980308;28;20066;-84
2022/09/01 09:51:18;;;;;;;2.38;0.80;;;28.50;90.30;;;;;;4980689;28;20468;-83
2022/09/01 09:53:44;;;;;;;1.48;0.90;;;28.60;89.60;;;;;;4980323;28;20086;-83
2022/09/01 09:56:19;;;;;;;1.88;0.88;;;29.20;89.40;;;;;;4980396;28;20171;-83
2022/09/01 09:58:47;;;;;;;1.52;0.70;;;28.80;84.40;;;;;;4977162;28;20050;-83
2022/09/01 10:01:28;;;;;;;1.88;0.75;;;29.00;87.60;;;;;;4980899;28;20101;-84
2022/09/01 10:04:02;;;;;;;3.05;0.90;;;28.80;80.70;;;;;;4980319;28;20042;-85
2022/09/01 10:06:33;;;;;;;2.80;0.70;;;28.80;81.60;;;;;;4943477;28;20051;-85
2022/09/01 10:09:16;;;;;;;1.27;0.70;;;28.90;82.70;;;;;;4960038;28;20514;-85
2022/09/01 10:11:47;;;;;;;1.67;0.93;;;29.20;81.10;;;;;;4983715;28;20061;-83
2022/09/01 10:14:47;;;;;;;2.08;0.60;;;29.20;81.00;;;;;;4961372;28;20122;-83
2022/09/01 10:21:10;;;;;;;3.25;0.80;;;29.70;79.00;;;;;;4960596;28;20121;-89
2022/09/01 10:24:13;;;;;;;2.58;0.70;;;29.90;75.90;;;;;;4962685;28;20056;-89
2022/09/01 10:27:28;;;;;;;1.47;0.63;;;30.10;73.40;;;;;;4954145;28;20051;-92
2022/09/01 10:30:45;;;;;;;2.23;0.70;;;29.70;72.30;;;;;;4950329;28;20042;-94
2022/09/01 10:33:14;;;;;;;0.82;0.60;;;30.00;69.20;;;;;;4957780;28;20058;-88
2022/09/01 10:35:44;;;;;;;2.40;0.60;;;29.70;72.60;;;;;;4950778;28;20388;-85
2022/09/01 10:38:49;;;;;;;1.67;0.63;;;30.00;70.70;;;;;;4958731;28;20050;-86
2022/09/01 10:42:03;;;;;;;2.72;0.70;;;29.70;66.20;;;;;;4910523;28;20538;-84
2022/09/01 10:45:06;;;;;;;;;;;;;;;;;;;;;
2022/09/01 10:47:42;;;;;;;0.80;0.50;;;28.40;68.10;;;;;;4965849;28;20050;-85
2022/09/01 10:50:31;;;;;;;0.93;0.55;;;27.80;71.90;;;;;;4964369;28;20579;-85
2022/09/01 10:53:03;;;;;;;1.23;0.70;;;27.70;69.80;;;;;;4961977;28;20054;-85
2022/09/01 10:55:47;;;;;;;;;;;;;;;;;;;;;
2022/09/01 10:58:44;;;;;;;4.07;0.80;;;27.20;70.60;;;;;;4959872;28;20095;-85
2022/09/01 11:01:12;;;;;;;1.10;0.60;;;27.00;70.40;;;;;;4960137;28;20208;-87
2022/09/01 11:03:55;;;;;;;1.48;0.70;;;26.80;71.80;;;;;;4957938;28;20047;-85
2022/09/01 11:06:54;;;;;;;2.50;0.63;;;26.60;71.70;;;;;;4969262;28;20050;-85
2022/09/01 11:09:36;;;;;;;1.52;0.60;;;26.50;70.60;;;;;;4979462;28;20456;-84
2022/09/01 11:12:45;;;;;;;2.58;0.60;;;26.40;72.10;;;;;;4971955;28;20054;-85
2022/09/01 11:15:17;;;;;;;1.13;0.70;;;26.30;71.10;;;;;;4963406;28;20054;-84
2022/09/01 11:17:49;;;;;;;1.52;0.80;;;26.30;72.40;;;;;;4978248;28;20577;-83
2022/09/01 11:20:24;;;;;;;1.15;0.60;;;26.30;71.00;;;;;;4978372;28;20042;-82
2022/09/01 11:22:56;;;;;;;1.02;0.68;;;26.50;70.50;;;;;;4970284;28;20061;-84
2022/09/01 11:25:36;;;;;;;1.92;0.85;;;26.90;68.70;;;;;;4969411;28;20059;-84
2022/09/01 11:28:22;;;;;;;1.63;0.70;;;27.20;67.60;;;;;;4978051;28;20089;-84
2022/09/01 11:31:02;;;;;;;0.95;0.50;;;27.10;69.00;;;;;;4959372;28;20101;-84
2022/09/01 11:33:52;;;;;;;1.65;0.60;;;26.90;67.50;;;;;;4984284;28;20050;-83
2022/09/01 11:36:27;;;;;;;0.77;0.50;;;27.00;67.10;;;;;;4979700;28;20055;-83
2022/09/01 11:39:03;;;;;;;0.68;0.40;;;26.80;68.10;;;;;;4979203;28;20463;-85
2022/09/01 11:41:45;;;;;;;1.00;0.50;;;26.60;67.90;;;;;;4978213;28;20084;-85
2022/09/01 11:44:22;;;;;;;1.38;0.80;;;26.50;68.80;;;;;;4981889;28;20137;-85
2022/09/01 11:46:51;;;;;;;2.67;0.80;;;26.70;68.80;;;;;;4984266;28;20133;-85
2022/09/01 11:49:45;;;;;;;0.95;0.65;;;27.30;69.10;;;;;;4969138;28;20047;-84
2022/09/01 11:52:16;;;;;;;2.45;0.70;;;27.40;68.40;;;;;;4987019;28;20045;-86
2022/09/01 11:54:45;;;;;;;2.00;0.90;;;27.90;66.80;;;;;;4983733;28;20499;-85
2022/09/01 11:57:22;;;;;;;1.50;0.70;;;28.20;67.10;;;;;;4969430;28;20046;-85
2022/09/01 11:59:51;;;;;;;3.50;0.80;;;27.90;66.50;;;;;;4978810;28;20530;-86
2022/09/01 12:02:33;;;;;;;3.08;0.70;;;27.70;66.10;;;;;;4980033;28;20046;-87
2022/09/01 12:05:02;;;;;;;1.92;0.60;;;27.40;66.40;;;;;;4959788;28;20241;-86
2022/09/01 12:07:46;;;;;;;2.03;0.75;;;27.10;67.50;;;;;;4985950;28;20951;-87
2022/09/01 12:10:43;;;;;;;2.13;0.80;;;27.10;67.10;;;;;;4981118;28;20108;-89
2022/09/01 12:13:24;;;;;;;1.45;0.50;;;27.60;67.30;;;;;;4953421;28;20121;-90
2022/09/01 12:16:20;;;;;;;1.40;0.47;;;28.00;66.80;;;;;;4970078;28;20059;-86
2022/09/01 12:18:55;;;;;;;2.07;0.50;;;27.80;63.40;;;;;;4984285;28;20055;-87
2022/09/01 12:21:27;;;;;;;2.20;0.47;;;27.30;65.90;;;;;;4985974;28;20122;-88
2022/09/01 12:24:35;;;;;;;1.48;0.70;;;27.00;65.50;;;;;;4986667;28;20608;-88
2022/09/01 12:27:38;;;;;;;;;;;;;;;;;;;;;
2022/09/01 12:30:11;;;;;;;2.35;0.60;;;27.80;66.30;;;;;;4975365;28;20055;-86
2022/09/01 12:32:56;;;;;;;1.38;0.70;;;29.00;65.50;;;;;;4982723;28;20043;-88
2022/09/01 12:35:25;;;;;;;1.15;0.50;;;29.10;65.10;;;;;;4999177;28;20050;-85
2022/09/01 12:38:11;;;;;;;1.80;0.85;;;29.60;64.70;;;;;;4973809;28;20051;-84
2022/09/01 12:40:40;;;;;;;0.90;0.60;;;30.10;65.00;;;;;;4979986;28;20047;-84
2022/09/01 12:43:25;;;;;;;1.85;0.60;;;30.30;64.80;;;;;;4982040;28;20051;-85
2022/09/01 12:45:51;;;;;;;1.80;0.88;;;30.00;64.90;;;;;;4979850;28;20052;-83
2022/09/01 12:48:30;;;;;;;2.28;0.70;;;30.20;65.20;;;;;;4946235;28;20050;-83
2022/09/01 12:50:59;;;;;;;3.67;0.70;;;30.50;64.50;;;;;;4982857;28;20042;-82
2022/09/01 12:53:27;;;;;;;1.98;0.82;;;30.40;63.90;;;;;;4973489;28;20054;-83
2022/09/01 12:56:15;;;;;;;1.77;0.65;;;30.00;63.40;;;;;;4981480;28;20156;-83
2022/09/01 12:58:46;;;;;;;1.30;0.60;;;30.00;64.10;;;;;;4990386;28;20178;-83
2022/09/01 13:01:25;;;;;;;2.35;0.70;;;29.30;64.00;;;;;;4965315;28;20050;-83
2022/09/01 13:04:21;;;;;;;1.10;0.60;;;29.60;63.90;;;;;;4984306;28;20140;-82
2022/09/01 13:06:48;;;;;;;1.08;0.52;;;30.00;62.20;;;;;;4955376;28;20105;-83
2022/09/01 13:09:14;;;;;;;0.95;0.50;;;29.90;61.70;;;;;;4963463;28;20455;-83
2022/09/01 13:11:41;;;;;;;0.80;0.43;;;30.00;60.90;;;;;;4964769;28;20054;-83
2022/09/01 13:14:07;;;;;;;2.80;0.60;;;30.30;60.80;;;;;;4961466;28;20059;-82
2022/09/01 13:16:35;;;;;;;0.82;0.65;;;30.60;60.20;;;;;;4970604;28;20054;-83
2022/09/01 13:19:05;;;;;;;0.60;0.40;;;30.80;58.90;;;;;;4970613;28;20058;-83
2022/09/01 13:21:34;;;;;;;0.88;0.50;;;31.00;59.00;;;;;;4970552;28;20047;-83
2022/09/01 13:24:05;;;;;;;1.13;0.60;;;31.20;58.30;;;;;;4964393;28;20392;-83
2022/09/01 13:26:31;;;;;;;1.15;0.65;;;31.40;57.40;;;;;;4955438;28;20508;-83
2022/09/01 13:28:58;;;;;;;1.27;0.55;;;31.70;56.60;;;;;;4946474;28;20054;-83
2022/09/01 13:31:24;;;;;;;0.50;0.38;;;31.80;56.10;;;;;;4947342;28;20054;-83